Weather at Lilongwe International Airport

Public forecast

Using degrees Celsius for public forecast. Weather courtesy of forecast.io.

Current aviation weather report (METAR) for Lilongwe International Airport

2024/07/19 09:00 (retrieved 56 minutes ago)

FWKI 190900Z 05010KT 9999 FEW024 23/06 Q1023 NOSIG

Aviation forecast (TAF) for Lilongwe International Airport

2024/07/19 06:00 (retrieved 4 hours ago)

TAF FWKI 190420Z 1906/2012 00000KT 8000 VCFG NSC BECMG 1906/1908 09006KT 8000 HZ SKC BECMG 1909/1911 08008KT 9999 FEW028 FM191400 09008KT CAVOK PROB30 TEMPO 2002/2006 00000KT 6000 VCFG NSC